Treviso / Sant'Angelo Airport LIPH

Flugplatz Daten

Name: Treviso / Sant'Angelo Airport

Ident: LIPH

Lat: 45,64839935

Long: 12,19439983

Platzhöhe: 59 ft

IataCode: TSF

City: Treviso

Homepage: http://www.trevisoairport.it/tsf/index.jsp?_requestid=677517&language=en

Metar

2022/08/13 18:20
LIPH 131820Z 21003KT 160V240 CAVOK 24/12 Q1012

Taf

2022/08/13 18:00
TAF LIPH 131700Z 1318/1418 VRB05KT CAVOK
BECMG 1409/1411 24010KT
BECMG 1414/1416 16008KT
Gewünschte Webcam nicht vorhanden? Dann fügen Sie eine hinzu. Sie wird dann so schnell wie möglich freigeschaltet
Url: Title: